sensor_id;sensor_type;location;lat;lon;timestamp;P1;durP1;ratioP1;P2;durP2;ratioP2
14872;SDS011;7528;48.576;19.122;2022-12-11T00:02:12;13.97;;;11.10;;
14872;SDS011;7528;48.576;19.122;2022-12-11T00:07:15;12.13;;;10.37;;
14872;SDS011;7528;48.576;19.122;2022-12-11T00:12:19;13.33;;;10.13;;
14872;SDS011;7528;48.576;19.122;2022-12-11T00:17:22;14.37;;;10.10;;
14872;SDS011;7528;48.576;19.122;2022-12-11T00:22:25;14.07;;;11.53;;
14872;SDS011;7528;48.576;19.122;2022-12-11T00:27:36;12.70;;;9.97;;
14872;SDS011;7528;48.576;19.122;2022-12-11T00:32:39;14.77;;;12.23;;
14872;SDS011;7528;48.576;19.122;2022-12-11T00:37:42;13.23;;;10.27;;
14872;SDS011;7528;48.576;19.122;2022-12-11T00:42:46;13.27;;;10.43;;
14872;SDS011;7528;48.576;19.122;2022-12-11T00:47:49;14.00;;;10.60;;
14872;SDS011;7528;48.576;19.122;2022-12-11T00:52:53;12.93;;;11.00;;
14872;SDS011;7528;48.576;19.122;2022-12-11T00:58:00;11.27;;;9.33;;
14872;SDS011;7528;48.576;19.122;2022-12-11T01:03:03;12.43;;;9.93;;
14872;SDS011;7528;48.576;19.122;2022-12-11T01:08:07;12.97;;;10.07;;
14872;SDS011;7528;48.576;19.122;2022-12-11T01:13:13;12.33;;;9.67;;
14872;SDS011;7528;48.576;19.122;2022-12-11T01:18:16;8.90;;;7.87;;
14872;SDS011;7528;48.576;19.122;2022-12-11T01:23:19;13.83;;;10.20;;
14872;SDS011;7528;48.576;19.122;2022-12-11T01:28:23;11.80;;;9.13;;
14872;SDS011;7528;48.576;19.122;2022-12-11T01:33:26;12.87;;;9.13;;
14872;SDS011;7528;48.576;19.122;2022-12-11T01:38:29;12.07;;;9.53;;
14872;SDS011;7528;48.576;19.122;2022-12-11T01:43:33;8.33;;;6.83;;
14872;SDS011;7528;48.576;19.122;2022-12-11T01:48:36;12.27;;;8.47;;
14872;SDS011;7528;48.576;19.122;2022-12-11T01:53:40;10.47;;;8.57;;
14872;SDS011;7528;48.576;19.122;2022-12-11T01:58:49;13.67;;;9.23;;
14872;SDS011;7528;48.576;19.122;2022-12-11T02:03:55;11.10;;;9.07;;
14872;SDS011;7528;48.576;19.122;2022-12-11T02:08:59;11.23;;;8.33;;
14872;SDS011;7528;48.576;19.122;2022-12-11T02:14:07;10.33;;;8.30;;
14872;SDS011;7528;48.576;19.122;2022-12-11T02:19:31;10.67;;;7.93;;
14872;SDS011;7528;48.576;19.122;2022-12-11T02:24:52;7.93;;;6.80;;
14872;SDS011;7528;48.576;19.122;2022-12-11T02:30:06;9.63;;;7.63;;
14872;SDS011;7528;48.576;19.122;2022-12-11T02:35:14;9.53;;;7.20;;
14872;SDS011;7528;48.576;19.122;2022-12-11T02:40:21;6.17;;;5.57;;
14872;SDS011;7528;48.576;19.122;2022-12-11T02:45:31;6.60;;;5.60;;
14872;SDS011;7528;48.576;19.122;2022-12-11T02:50:35;5.80;;;4.80;;
14872;SDS011;7528;48.576;19.122;2022-12-11T02:55:43;5.90;;;4.93;;
14872;SDS011;7528;48.576;19.122;2022-12-11T03:00:48;6.33;;;5.27;;
14872;SDS011;7528;48.576;19.122;2022-12-11T03:05:51;5.67;;;4.80;;
14872;SDS011;7528;48.576;19.122;2022-12-11T03:10:53;5.83;;;4.97;;
14872;SDS011;7528;48.576;19.122;2022-12-11T03:16:01;5.87;;;4.87;;
14872;SDS011;7528;48.576;19.122;2022-12-11T03:21:12;5.37;;;4.60;;
14872;SDS011;7528;48.576;19.122;2022-12-11T03:26:19;4.70;;;4.27;;
14872;SDS011;7528;48.576;19.122;2022-12-11T03:31:26;6.87;;;5.80;;
14872;SDS011;7528;48.576;19.122;2022-12-11T03:36:32;5.97;;;4.97;;
14872;SDS011;7528;48.576;19.122;2022-12-11T03:41:38;5.70;;;4.60;;
14872;SDS011;7528;48.576;19.122;2022-12-11T03:46:43;6.73;;;5.13;;
14872;SDS011;7528;48.576;19.122;2022-12-11T03:51:47;5.40;;;4.57;;
14872;SDS011;7528;48.576;19.122;2022-12-11T03:56:53;5.80;;;4.83;;
14872;SDS011;7528;48.576;19.122;2022-12-11T04:01:59;6.10;;;5.20;;
14872;SDS011;7528;48.576;19.122;2022-12-11T04:07:10;10.30;;;6.77;;
14872;SDS011;7528;48.576;19.122;2022-12-11T04:12:12;13.97;;;7.83;;
14872;SDS011;7528;48.576;19.122;2022-12-11T04:17:16;5.43;;;4.10;;
14872;SDS011;7528;48.576;19.122;2022-12-11T04:22:32;7.70;;;4.33;;
14872;SDS011;7528;48.576;19.122;2022-12-11T04:27:52;11.17;;;7.00;;
14872;SDS011;7528;48.576;19.122;2022-12-11T04:32:56;47.23;;;24.17;;
14872;SDS011;7528;48.576;19.122;2022-12-11T04:37:59;17.27;;;8.63;;
14872;SDS011;7528;48.576;19.122;2022-12-11T04:43:01;5.60;;;4.47;;
14872;SDS011;7528;48.576;19.122;2022-12-11T04:48:06;7.57;;;5.77;;
14872;SDS011;7528;48.576;19.122;2022-12-11T04:53:09;5.30;;;4.77;;
14872;SDS011;7528;48.576;19.122;2022-12-11T04:58:11;6.23;;;5.63;;
14872;SDS011;7528;48.576;19.122;2022-12-11T05:03:15;8.93;;;7.43;;
14872;SDS011;7528;48.576;19.122;2022-12-11T05:08:18;43.87;;;23.73;;
14872;SDS011;7528;48.576;19.122;2022-12-11T05:13:22;18.03;;;13.67;;
14872;SDS011;7528;48.576;19.122;2022-12-11T05:18:26;4.37;;;3.30;;
14872;SDS011;7528;48.576;19.122;2022-12-11T05:23:29;6.50;;;5.43;;
14872;SDS011;7528;48.576;19.122;2022-12-11T05:28:32;3.37;;;2.50;;
14872;SDS011;7528;48.576;19.122;2022-12-11T05:33:38;2.50;;;2.30;;
14872;SDS011;7528;48.576;19.122;2022-12-11T05:38:41;2.40;;;2.10;;
14872;SDS011;7528;48.576;19.122;2022-12-11T05:43:43;2.33;;;2.13;;
14872;SDS011;7528;48.576;19.122;2022-12-11T05:48:48;2.20;;;2.00;;
14872;SDS011;7528;48.576;19.122;2022-12-11T05:53:53;2.73;;;2.43;;
14872;SDS011;7528;48.576;19.122;2022-12-11T05:58:56;2.50;;;2.20;;
14872;SDS011;7528;48.576;19.122;2022-12-11T06:04:02;2.40;;;2.17;;
14872;SDS011;7528;48.576;19.122;2022-12-11T06:09:06;2.87;;;2.47;;
14872;SDS011;7528;48.576;19.122;2022-12-11T06:14:09;4.07;;;2.40;;
14872;SDS011;7528;48.576;19.122;2022-12-11T06:19:14;2.30;;;2.00;;
14872;SDS011;7528;48.576;19.122;2022-12-11T06:24:18;4.00;;;2.40;;
14872;SDS011;7528;48.576;19.122;2022-12-11T06:29:20;2.37;;;2.13;;
14872;SDS011;7528;48.576;19.122;2022-12-11T06:34:24;2.37;;;2.13;;
14872;SDS011;7528;48.576;19.122;2022-12-11T06:39:27;2.07;;;1.87;;
14872;SDS011;7528;48.576;19.122;2022-12-11T06:44:29;2.60;;;2.40;;
14872;SDS011;7528;48.576;19.122;2022-12-11T06:49:33;3.80;;;2.30;;
14872;SDS011;7528;48.576;19.122;2022-12-11T06:54:35;3.20;;;2.90;;
14872;SDS011;7528;48.576;19.122;2022-12-11T06:59:38;7.43;;;5.53;;
14872;SDS011;7528;48.576;19.122;2022-12-11T07:04:42;3.50;;;2.97;;
14872;SDS011;7528;48.576;19.122;2022-12-11T07:09:45;9.10;;;6.80;;
14872;SDS011;7528;48.576;19.122;2022-12-11T07:14:47;11.67;;;8.63;;
14872;SDS011;7528;48.576;19.122;2022-12-11T07:19:51;5.07;;;4.57;;
14872;SDS011;7528;48.576;19.122;2022-12-11T07:24:54;2.77;;;2.37;;
14872;SDS011;7528;48.576;19.122;2022-12-11T07:29:57;5.50;;;4.00;;
14872;SDS011;7528;48.576;19.122;2022-12-11T07:35:01;2.37;;;2.17;;
14872;SDS011;7528;48.576;19.122;2022-12-11T07:40:04;3.60;;;2.60;;
14872;SDS011;7528;48.576;19.122;2022-12-11T07:45:08;3.33;;;2.47;;
14872;SDS011;7528;48.576;19.122;2022-12-11T07:50:15;2.27;;;2.00;;
14872;SDS011;7528;48.576;19.122;2022-12-11T07:55:18;1.70;;;1.60;;
14872;SDS011;7528;48.576;19.122;2022-12-11T08:00:24;2.37;;;2.17;;
14872;SDS011;7528;48.576;19.122;2022-12-11T08:05:31;7.03;;;6.33;;
14872;SDS011;7528;48.576;19.122;2022-12-11T08:10:34;2.83;;;2.63;;
14872;SDS011;7528;48.576;19.122;2022-12-11T08:15:37;3.97;;;3.00;;
14872;SDS011;7528;48.576;19.122;2022-12-11T08:20:44;3.00;;;2.60;;
14872;SDS011;7528;48.576;19.122;2022-12-11T08:25:47;3.23;;;2.53;;
14872;SDS011;7528;48.576;19.122;2022-12-11T08:30:49;2.30;;;2.10;;
14872;SDS011;7528;48.576;19.122;2022-12-11T08:35:53;1.97;;;1.80;;
14872;SDS011;7528;48.576;19.122;2022-12-11T08:40:56;2.43;;;1.80;;
14872;SDS011;7528;48.576;19.122;2022-12-11T08:45:58;3.20;;;1.97;;
14872;SDS011;7528;48.576;19.122;2022-12-11T08:51:03;2.00;;;1.90;;
14872;SDS011;7528;48.576;19.122;2022-12-11T08:56:08;2.00;;;1.80;;
14872;SDS011;7528;48.576;19.122;2022-12-11T09:01:13;2.60;;;2.40;;
14872;SDS011;7528;48.576;19.122;2022-12-11T09:06:19;2.00;;;1.80;;
14872;SDS011;7528;48.576;19.122;2022-12-11T09:11:24;3.23;;;1.90;;
14872;SDS011;7528;48.576;19.122;2022-12-11T09:16:28;4.00;;;3.60;;
14872;SDS011;7528;48.576;19.122;2022-12-11T09:21:32;2.17;;;1.90;;
14872;SDS011;7528;48.576;19.122;2022-12-11T09:26:35;3.10;;;2.80;;
14872;SDS011;7528;48.576;19.122;2022-12-11T09:31:38;3.67;;;3.13;;
14872;SDS011;7528;48.576;19.122;2022-12-11T09:36:42;2.60;;;2.40;;
14872;SDS011;7528;48.576;19.122;2022-12-11T09:41:47;3.00;;;2.60;;
14872;SDS011;7528;48.576;19.122;2022-12-11T09:46:55;1.90;;;1.70;;
14872;SDS011;7528;48.576;19.122;2022-12-11T09:52:02;6.17;;;4.77;;
14872;SDS011;7528;48.576;19.122;2022-12-11T09:57:13;14.83;;;9.93;;
14872;SDS011;7528;48.576;19.122;2022-12-11T10:02:28;5.60;;;3.43;;
14872;SDS011;7528;48.576;19.122;2022-12-11T10:07:40;4.47;;;3.43;;
14872;SDS011;7528;48.576;19.122;2022-12-11T10:12:50;5.33;;;4.10;;
14872;SDS011;7528;48.576;19.122;2022-12-11T10:18:02;4.17;;;3.17;;
14872;SDS011;7528;48.576;19.122;2022-12-11T10:23:13;2.70;;;2.50;;
14872;SDS011;7528;48.576;19.122;2022-12-11T10:28:20;4.40;;;4.00;;
14872;SDS011;7528;48.576;19.122;2022-12-11T10:33:25;3.30;;;2.60;;
14872;SDS011;7528;48.576;19.122;2022-12-11T10:38:37;12.20;;;8.97;;
14872;SDS011;7528;48.576;19.122;2022-12-11T10:43:44;5.00;;;4.50;;
14872;SDS011;7528;48.576;19.122;2022-12-11T10:48:49;4.10;;;3.70;;
14872;SDS011;7528;48.576;19.122;2022-12-11T10:53:56;3.87;;;3.57;;
14872;SDS011;7528;48.576;19.122;2022-12-11T10:59:02;4.83;;;3.50;;
14872;SDS011;7528;48.576;19.122;2022-12-11T11:04:06;5.37;;;3.23;;
14872;SDS011;7528;48.576;19.122;2022-12-11T11:09:29;5.47;;;4.80;;
14872;SDS011;7528;48.576;19.122;2022-12-11T11:14:34;4.90;;;3.80;;
14872;SDS011;7528;48.576;19.122;2022-12-11T11:19:37;5.77;;;5.13;;
14872;SDS011;7528;48.576;19.122;2022-12-11T11:24:42;4.20;;;3.17;;
14872;SDS011;7528;48.576;19.122;2022-12-11T11:29:46;4.57;;;4.17;;
14872;SDS011;7528;48.576;19.122;2022-12-11T11:34:52;4.50;;;4.10;;
14872;SDS011;7528;48.576;19.122;2022-12-11T11:39:56;4.63;;;3.83;;
14872;SDS011;7528;48.576;19.122;2022-12-11T11:45:04;7.37;;;5.87;;
14872;SDS011;7528;48.576;19.122;2022-12-11T11:50:14;24.40;;;19.80;;
14872;SDS011;7528;48.576;19.122;2022-12-11T11:55:24;13.67;;;10.67;;
14872;SDS011;7528;48.576;19.122;2022-12-11T12:00:37;10.47;;;9.40;;
14872;SDS011;7528;48.576;19.122;2022-12-11T12:05:42;12.83;;;8.60;;
14872;SDS011;7528;48.576;19.122;2022-12-11T12:10:54;10.47;;;8.50;;
14872;SDS011;7528;48.576;19.122;2022-12-11T12:16:03;5.20;;;4.27;;
14872;SDS011;7528;48.576;19.122;2022-12-11T12:21:12;7.70;;;5.80;;
14872;SDS011;7528;48.576;19.122;2022-12-11T12:26:22;20.07;;;16.03;;
14872;SDS011;7528;48.576;19.122;2022-12-11T12:31:33;6.87;;;5.87;;
14872;SDS011;7528;48.576;19.122;2022-12-11T12:36:53;12.13;;;10.63;;
14872;SDS011;7528;48.576;19.122;2022-12-11T12:42:10;4.73;;;4.33;;
14872;SDS011;7528;48.576;19.122;2022-12-11T12:47:20;4.60;;;3.63;;
14872;SDS011;7528;48.576;19.122;2022-12-11T12:52:24;4.47;;;4.03;;
14872;SDS011;7528;48.576;19.122;2022-12-11T12:57:33;10.30;;;7.47;;
14872;SDS011;7528;48.576;19.122;2022-12-11T13:02:37;4.17;;;3.77;;
14872;SDS011;7528;48.576;19.122;2022-12-11T13:07:51;6.40;;;5.80;;
14872;SDS011;7528;48.576;19.122;2022-12-11T13:12:56;4.60;;;4.20;;
14872;SDS011;7528;48.576;19.122;2022-12-11T13:18:00;4.93;;;4.43;;
14872;SDS011;7528;48.576;19.122;2022-12-11T13:23:09;7.60;;;6.20;;
14872;SDS011;7528;48.576;19.122;2022-12-11T13:28:31;6.87;;;5.00;;
14872;SDS011;7528;48.576;19.122;2022-12-11T13:33:47;5.17;;;4.20;;
14872;SDS011;7528;48.576;19.122;2022-12-11T13:38:52;6.60;;;5.00;;
14872;SDS011;7528;48.576;19.122;2022-12-11T13:43:58;8.13;;;6.50;;
14872;SDS011;7528;48.576;19.122;2022-12-11T13:49:03;8.43;;;7.47;;
14872;SDS011;7528;48.576;19.122;2022-12-11T13:54:12;7.73;;;5.90;;
14872;SDS011;7528;48.576;19.122;2022-12-11T13:59:22;15.70;;;10.43;;
14872;SDS011;7528;48.576;19.122;2022-12-11T14:04:26;8.23;;;6.23;;
14872;SDS011;7528;48.576;19.122;2022-12-11T14:09:30;8.43;;;6.47;;
14872;SDS011;7528;48.576;19.122;2022-12-11T14:14:37;10.80;;;7.43;;
14872;SDS011;7528;48.576;19.122;2022-12-11T14:19:44;9.50;;;7.90;;
14872;SDS011;7528;48.576;19.122;2022-12-11T14:24:48;10.73;;;8.57;;
14872;SDS011;7528;48.576;19.122;2022-12-11T14:29:53;8.53;;;6.70;;
14872;SDS011;7528;48.576;19.122;2022-12-11T14:34:56;8.30;;;6.80;;
14872;SDS011;7528;48.576;19.122;2022-12-11T14:40:00;8.17;;;5.97;;
14872;SDS011;7528;48.576;19.122;2022-12-11T14:45:23;10.90;;;8.17;;
14872;SDS011;7528;48.576;19.122;2022-12-11T14:50:34;8.87;;;7.10;;
14872;SDS011;7528;48.576;19.122;2022-12-11T14:55:43;9.50;;;7.23;;
14872;SDS011;7528;48.576;19.122;2022-12-11T15:00:56;8.70;;;7.53;;
14872;SDS011;7528;48.576;19.122;2022-12-11T15:06:00;9.63;;;8.20;;
14872;SDS011;7528;48.576;19.122;2022-12-11T15:11:04;8.53;;;7.63;;
14872;SDS011;7528;48.576;19.122;2022-12-11T15:16:12;10.00;;;8.13;;
14872;SDS011;7528;48.576;19.122;2022-12-11T15:21:15;9.60;;;7.40;;
14872;SDS011;7528;48.576;19.122;2022-12-11T15:26:19;8.70;;;7.50;;
14872;SDS011;7528;48.576;19.122;2022-12-11T15:31:34;9.27;;;7.17;;
14872;SDS011;7528;48.576;19.122;2022-12-11T15:36:37;10.13;;;7.17;;
14872;SDS011;7528;48.576;19.122;2022-12-11T15:41:39;7.87;;;6.70;;
14872;SDS011;7528;48.576;19.122;2022-12-11T15:46:44;13.53;;;9.87;;
14872;SDS011;7528;48.576;19.122;2022-12-11T15:51:47;9.83;;;8.03;;
14872;SDS011;7528;48.576;19.122;2022-12-11T15:56:49;11.27;;;7.30;;
14872;SDS011;7528;48.576;19.122;2022-12-11T16:02:01;32.40;;;18.87;;
14872;SDS011;7528;48.576;19.122;2022-12-11T16:07:19;9.47;;;8.00;;
14872;SDS011;7528;48.576;19.122;2022-12-11T16:12:23;9.33;;;7.50;;
14872;SDS011;7528;48.576;19.122;2022-12-11T16:17:28;9.77;;;8.37;;
14872;SDS011;7528;48.576;19.122;2022-12-11T16:22:31;11.93;;;9.40;;
14872;SDS011;7528;48.576;19.122;2022-12-11T16:27:47;9.10;;;7.20;;
14872;SDS011;7528;48.576;19.122;2022-12-11T16:32:51;8.13;;;6.40;;
14872;SDS011;7528;48.576;19.122;2022-12-11T16:37:54;8.60;;;7.10;;
14872;SDS011;7528;48.576;19.122;2022-12-11T16:42:57;7.23;;;5.93;;
14872;SDS011;7528;48.576;19.122;2022-12-11T16:48:02;8.27;;;6.63;;
14872;SDS011;7528;48.576;19.122;2022-12-11T16:53:06;9.53;;;7.87;;
14872;SDS011;7528;48.576;19.122;2022-12-11T16:58:09;7.97;;;6.87;;
14872;SDS011;7528;48.576;19.122;2022-12-11T17:03:17;10.00;;;7.33;;
14872;SDS011;7528;48.576;19.122;2022-12-11T17:08:19;7.70;;;6.00;;
14872;SDS011;7528;48.576;19.122;2022-12-11T17:13:22;7.80;;;6.70;;
14872;SDS011;7528;48.576;19.122;2022-12-11T17:18:26;10.63;;;8.03;;
14872;SDS011;7528;48.576;19.122;2022-12-11T17:23:29;10.27;;;7.60;;
14872;SDS011;7528;48.576;19.122;2022-12-11T17:28:31;9.17;;;7.37;;
14872;SDS011;7528;48.576;19.122;2022-12-11T17:33:37;9.13;;;7.23;;
14872;SDS011;7528;48.576;19.122;2022-12-11T17:38:40;11.87;;;8.50;;
14872;SDS011;7528;48.576;19.122;2022-12-11T17:43:43;22.27;;;14.97;;
14872;SDS011;7528;48.576;19.122;2022-12-11T17:48:47;23.87;;;14.60;;
14872;SDS011;7528;48.576;19.122;2022-12-11T17:53:50;31.00;;;19.70;;
14872;SDS011;7528;48.576;19.122;2022-12-11T17:58:53;15.63;;;10.83;;
14872;SDS011;7528;48.576;19.122;2022-12-11T18:03:58;10.30;;;6.73;;
14872;SDS011;7528;48.576;19.122;2022-12-11T18:09:02;8.47;;;5.83;;
14872;SDS011;7528;48.576;19.122;2022-12-11T18:14:05;8.00;;;6.73;;
14872;SDS011;7528;48.576;19.122;2022-12-11T18:19:09;8.80;;;6.20;;
14872;SDS011;7528;48.576;19.122;2022-12-11T18:24:12;12.50;;;9.43;;
14872;SDS011;7528;48.576;19.122;2022-12-11T18:29:15;13.47;;;8.73;;
14872;SDS011;7528;48.576;19.122;2022-12-11T18:34:19;10.37;;;7.50;;
14872;SDS011;7528;48.576;19.122;2022-12-11T18:39:22;8.10;;;6.30;;
14872;SDS011;7528;48.576;19.122;2022-12-11T18:44:25;6.57;;;5.47;;
14872;SDS011;7528;48.576;19.122;2022-12-11T18:49:29;8.23;;;6.17;;
14872;SDS011;7528;48.576;19.122;2022-12-11T18:54:31;14.57;;;9.33;;
14872;SDS011;7528;48.576;19.122;2022-12-11T18:59:34;21.40;;;14.77;;
14872;SDS011;7528;48.576;19.122;2022-12-11T19:04:39;11.33;;;8.57;;
14872;SDS011;7528;48.576;19.122;2022-12-11T19:09:42;6.93;;;6.00;;
14872;SDS011;7528;48.576;19.122;2022-12-11T19:14:44;23.87;;;13.17;;
14872;SDS011;7528;48.576;19.122;2022-12-11T19:19:48;13.90;;;8.63;;
14872;SDS011;7528;48.576;19.122;2022-12-11T19:24:51;14.07;;;8.53;;
14872;SDS011;7528;48.576;19.122;2022-12-11T19:29:54;13.10;;;8.60;;
14872;SDS011;7528;48.576;19.122;2022-12-11T19:35:00;9.97;;;7.13;;
14872;SDS011;7528;48.576;19.122;2022-12-11T19:40:03;12.20;;;9.77;;
14872;SDS011;7528;48.576;19.122;2022-12-11T19:45:09;10.13;;;7.93;;
14872;SDS011;7528;48.576;19.122;2022-12-11T19:50:14;12.67;;;9.27;;
14872;SDS011;7528;48.576;19.122;2022-12-11T19:55:16;12.73;;;9.27;;
14872;SDS011;7528;48.576;19.122;2022-12-11T20:00:21;9.70;;;7.73;;
14872;SDS011;7528;48.576;19.122;2022-12-11T20:05:25;17.40;;;11.00;;
14872;SDS011;7528;48.576;19.122;2022-12-11T20:10:29;19.47;;;12.43;;
14872;SDS011;7528;48.576;19.122;2022-12-11T20:15:32;24.57;;;15.43;;
14872;SDS011;7528;48.576;19.122;2022-12-11T20:20:36;37.63;;;21.53;;
14872;SDS011;7528;48.576;19.122;2022-12-11T20:25:39;10.23;;;8.50;;
14872;SDS011;7528;48.576;19.122;2022-12-11T20:30:41;9.60;;;7.67;;
14872;SDS011;7528;48.576;19.122;2022-12-11T20:35:46;13.40;;;10.53;;
14872;SDS011;7528;48.576;19.122;2022-12-11T20:40:49;14.10;;;10.40;;
14872;SDS011;7528;48.576;19.122;2022-12-11T20:45:51;9.37;;;7.37;;
14872;SDS011;7528;48.576;19.122;2022-12-11T20:50:59;12.03;;;10.33;;
14872;SDS011;7528;48.576;19.122;2022-12-11T20:56:07;13.47;;;10.43;;
14872;SDS011;7528;48.576;19.122;2022-12-11T21:01:13;30.20;;;19.77;;
14872;SDS011;7528;48.576;19.122;2022-12-11T21:06:19;74.57;;;40.40;;
14872;SDS011;7528;48.576;19.122;2022-12-11T21:11:24;49.23;;;23.00;;
14872;SDS011;7528;48.576;19.122;2022-12-11T21:16:27;22.60;;;13.57;;
14872;SDS011;7528;48.576;19.122;2022-12-11T21:21:32;23.53;;;15.70;;
14872;SDS011;7528;48.576;19.122;2022-12-11T21:26:36;19.20;;;12.27;;
14872;SDS011;7528;48.576;19.122;2022-12-11T21:31:38;10.23;;;7.67;;
14872;SDS011;7528;48.576;19.122;2022-12-11T21:36:42;8.33;;;6.77;;
14872;SDS011;7528;48.576;19.122;2022-12-11T21:41:45;8.57;;;6.47;;
14872;SDS011;7528;48.576;19.122;2022-12-11T21:46:48;7.33;;;6.40;;
14872;SDS011;7528;48.576;19.122;2022-12-11T21:51:52;13.63;;;9.83;;
14872;SDS011;7528;48.576;19.122;2022-12-11T21:56:55;11.27;;;7.83;;
14872;SDS011;7528;48.576;19.122;2022-12-11T22:01:58;17.87;;;12.53;;
14872;SDS011;7528;48.576;19.122;2022-12-11T22:07:02;15.60;;;10.83;;
14872;SDS011;7528;48.576;19.122;2022-12-11T22:12:05;18.00;;;12.63;;
14872;SDS011;7528;48.576;19.122;2022-12-11T22:17:07;22.97;;;14.13;;
14872;SDS011;7528;48.576;19.122;2022-12-11T22:22:12;11.80;;;8.57;;
14872;SDS011;7528;48.576;19.122;2022-12-11T22:27:15;11.17;;;8.80;;
14872;SDS011;7528;48.576;19.122;2022-12-11T22:32:17;8.33;;;6.67;;
14872;SDS011;7528;48.576;19.122;2022-12-11T22:37:21;10.03;;;7.97;;
14872;SDS011;7528;48.576;19.122;2022-12-11T22:42:24;14.77;;;11.00;;
14872;SDS011;7528;48.576;19.122;2022-12-11T22:47:27;11.10;;;8.27;;
14872;SDS011;7528;48.576;19.122;2022-12-11T22:52:32;11.73;;;9.30;;
14872;SDS011;7528;48.576;19.122;2022-12-11T22:57:35;9.70;;;7.57;;
14872;SDS011;7528;48.576;19.122;2022-12-11T23:02:37;11.33;;;8.97;;
14872;SDS011;7528;48.576;19.122;2022-12-11T23:07:41;9.60;;;8.07;;
14872;SDS011;7528;48.576;19.122;2022-12-11T23:12:44;9.50;;;7.60;;
14872;SDS011;7528;48.576;19.122;2022-12-11T23:17:47;7.67;;;6.10;;
14872;SDS011;7528;48.576;19.122;2022-12-11T23:22:51;12.17;;;7.60;;
14872;SDS011;7528;48.576;19.122;2022-12-11T23:27:54;10.07;;;7.13;;
14872;SDS011;7528;48.576;19.122;2022-12-11T23:32:56;7.77;;;6.50;;
14872;SDS011;7528;48.576;19.122;2022-12-11T23:38:01;9.80;;;7.07;;
14872;SDS011;7528;48.576;19.122;2022-12-11T23:43:04;9.30;;;7.00;;
14872;SDS011;7528;48.576;19.122;2022-12-11T23:48:07;9.40;;;7.00;;
14872;SDS011;7528;48.576;19.122;2022-12-11T23:53:11;8.47;;;6.50;;
14872;SDS011;7528;48.576;19.122;2022-12-11T23:58:14;8.80;;;6.80;;
